createdAt,value
2022-09-22T00:02:19.338Z,3.80
2022-09-22T00:04:50.351Z,3.80
2022-09-22T00:07:21.700Z,3.90
2022-09-22T00:09:52.530Z,4.10
2022-09-22T00:12:23.439Z,4.80
2022-09-22T00:14:54.345Z,3.40
2022-09-22T00:17:25.163Z,3.90
2022-09-22T00:19:56.015Z,3.80
2022-09-22T00:22:28.357Z,4.00
2022-09-22T00:25:00.278Z,3.50
2022-09-22T00:27:31.230Z,3.70
2022-09-22T00:30:02.156Z,4.40
2022-09-22T00:32:33.928Z,4.30
2022-09-22T00:35:04.941Z,4.10
2022-09-22T00:37:36.492Z,4.10
2022-09-22T00:40:10.250Z,4.00
2022-09-22T00:42:41.195Z,4.30
2022-09-22T00:45:14.665Z,3.60
2022-09-22T00:47:48.211Z,3.50
2022-09-22T00:50:22.156Z,4.10
2022-09-22T00:52:57.017Z,4.20
2022-09-22T00:55:34.045Z,4.20
2022-09-22T00:58:07.628Z,4.10
2022-09-22T01:00:40.224Z,3.60
2022-09-22T01:03:15.821Z,3.60
2022-09-22T01:05:50.403Z,3.70
2022-09-22T01:08:23.258Z,3.70
2022-09-22T01:10:55.975Z,3.40
2022-09-22T01:13:32.537Z,3.50
2022-09-22T01:16:13.735Z,3.80
2022-09-22T01:18:55.646Z,3.50
2022-09-22T01:21:37.932Z,4.00
2022-09-22T01:24:40.242Z,4.00
2022-09-22T01:27:46.808Z,3.90
2022-09-22T01:30:26.442Z,3.70
2022-09-22T01:33:07.541Z,3.90
2022-09-22T01:35:50.534Z,3.30
2022-09-22T01:38:31.627Z,4.60
2022-09-22T01:41:08.163Z,4.20
2022-09-22T01:43:49.411Z,3.90
2022-09-22T01:46:26.267Z,4.70
2022-09-22T01:49:00.913Z,4.20
2022-09-22T01:51:36.286Z,4.20
2022-09-22T01:54:12.781Z,4.90
2022-09-22T01:56:49.473Z,4.40
2022-09-22T01:59:24.597Z,3.90
2022-09-22T02:02:00.523Z,4.10
2022-09-22T02:04:37.246Z,4.40
2022-09-22T02:07:12.698Z,4.70
2022-09-22T02:09:47.383Z,4.40
2022-09-22T02:12:19.240Z,4.20
2022-09-22T02:14:50.801Z,4.30
2022-09-22T02:17:21.939Z,4.40
2022-09-22T02:19:53.331Z,4.40
2022-09-22T02:22:24.559Z,4.50
2022-09-22T02:24:55.804Z,4.80
2022-09-22T02:27:36.826Z,4.40
2022-09-22T02:30:12.427Z,4.60
2022-09-22T02:32:47.468Z,4.70
2022-09-22T02:35:18.936Z,4.60
2022-09-22T02:37:54.808Z,4.60
2022-09-22T02:40:33.531Z,5.90
2022-09-22T02:43:10.987Z,4.80
2022-09-22T02:45:49.471Z,5.00
2022-09-22T02:48:24.266Z,5.40
2022-09-22T02:50:57.330Z,5.00
2022-09-22T02:53:28.622Z,5.30
2022-09-22T02:55:59.480Z,5.40
2022-09-22T02:58:30.324Z,5.50
2022-09-22T03:01:01.133Z,5.30
2022-09-22T03:03:32.081Z,6.70
2022-09-22T03:06:02.985Z,5.50
2022-09-22T03:08:33.983Z,5.90
2022-09-22T03:11:04.906Z,5.90
2022-09-22T03:13:35.742Z,5.10
2022-09-22T03:16:06.746Z,5.20
2022-09-22T03:18:37.723Z,6.50
2022-09-22T03:21:09.078Z,6.20
2022-09-22T03:23:39.898Z,7.00
2022-09-22T03:26:10.894Z,7.00
2022-09-22T03:28:44.030Z,12.00
2022-09-22T03:31:14.969Z,9.20
2022-09-22T03:33:48.194Z,6.30
2022-09-22T03:36:23.432Z,7.30
2022-09-22T03:38:55.776Z,6.50
2022-09-22T03:41:26.768Z,7.20
2022-09-22T03:43:57.698Z,7.10
2022-09-22T03:46:30.039Z,7.60
2022-09-22T03:49:00.974Z,15.50
2022-09-22T03:51:32.352Z,8.10
2022-09-22T03:54:03.736Z,8.10
2022-09-22T03:56:34.584Z,7.20
2022-09-22T03:59:05.644Z,7.80
2022-09-22T04:01:36.579Z,7.80
2022-09-22T04:04:08.464Z,7.20
2022-09-22T04:06:40.150Z,7.40
2022-09-22T04:09:11.295Z,7.50
2022-09-22T04:11:42.237Z,7.20
2022-09-22T04:14:13.186Z,8.00
2022-09-22T04:16:46.192Z,7.10
2022-09-22T04:19:17.251Z,7.90
2022-09-22T04:21:49.415Z,7.30
2022-09-22T04:24:24.629Z,7.50
2022-09-22T04:27:18.690Z,7.40
2022-09-22T04:29:47.466Z,6.70
2022-09-22T04:32:19.527Z,7.40
2022-09-22T04:34:51.168Z,7.00
2022-09-22T04:37:22.184Z,7.30
2022-09-22T04:39:56.488Z,7.30
2022-09-22T04:42:28.018Z,7.70
2022-09-22T04:45:02.395Z,6.80
2022-09-22T04:47:33.494Z,6.50
2022-09-22T04:50:04.347Z,7.70
2022-09-22T04:52:40.886Z,15.20
2022-09-22T04:55:13.130Z,7.60
2022-09-22T04:57:48.152Z,7.20
2022-09-22T05:00:23.768Z,6.90
2022-09-22T05:02:55.227Z,7.20
2022-09-22T05:05:26.185Z,6.30
2022-09-22T05:07:56.981Z,7.60
2022-09-22T05:10:32.430Z,7.80
2022-09-22T05:13:04.462Z,7.60
2022-09-22T05:15:35.437Z,7.90
2022-09-22T05:18:07.312Z,8.10
2022-09-22T05:20:39.344Z,14.80
2022-09-22T05:23:11.228Z,9.40
2022-09-22T05:25:44.592Z,7.40
2022-09-22T05:28:16.095Z,7.10
2022-09-22T05:30:47.272Z,7.00
2022-09-22T05:33:18.404Z,12.50
2022-09-22T05:35:49.297Z,8.10
2022-09-22T05:38:20.273Z,7.20
2022-09-22T05:40:51.116Z,6.90
2022-09-22T05:43:21.961Z,7.80
2022-09-22T05:45:55.550Z,7.40
2022-09-22T05:48:31.424Z,6.90
2022-09-22T05:51:02.711Z,6.90
2022-09-22T05:53:33.643Z,6.50
2022-09-22T05:56:06.223Z,6.30
2022-09-22T06:01:09.537Z,5.80
2022-09-22T06:03:40.851Z,6.00
2022-09-22T06:06:15.068Z,6.50
2022-09-22T06:08:48.835Z,7.10
2022-09-22T06:11:20.573Z,6.10
2022-09-22T06:13:53.162Z,5.70
2022-09-22T06:16:24.102Z,5.90
2022-09-22T06:18:55.092Z,5.80
2022-09-22T06:21:26.872Z,9.50
2022-09-22T06:23:58.303Z,7.80
2022-09-22T06:26:29.915Z,7.30
2022-09-22T06:29:01.243Z,5.80
2022-09-22T06:31:33.188Z,6.90
2022-09-22T06:34:07.486Z,5.70
2022-09-22T06:36:39.420Z,5.30
2022-09-22T06:39:10.932Z,5.70
2022-09-22T06:41:42.200Z,5.50
2022-09-22T06:44:14.346Z,5.70
2022-09-22T06:46:48.941Z,6.00
2022-09-22T06:49:22.556Z,6.20
2022-09-22T06:51:54.755Z,6.50
2022-09-22T06:54:25.944Z,6.70
2022-09-22T06:56:56.924Z,10.10
2022-09-22T06:59:29.547Z,6.70
2022-09-22T07:02:00.939Z,6.90
2022-09-22T07:04:32.292Z,6.00
2022-09-22T07:07:04.203Z,5.70
2022-09-22T07:09:35.097Z,5.70
2022-09-22T07:12:06.795Z,5.90
2022-09-22T07:14:37.694Z,6.10
2022-09-22T07:17:08.489Z,5.20
2022-09-22T07:19:39.373Z,5.30
2022-09-22T07:22:10.521Z,5.90
2022-09-22T07:24:41.771Z,5.40
2022-09-22T07:27:20.207Z,5.50
2022-09-22T07:29:52.142Z,5.40
2022-09-22T07:32:23.319Z,4.70
2022-09-22T07:34:54.170Z,5.60
2022-09-22T07:37:25.544Z,5.80
2022-09-22T07:39:56.452Z,6.80
2022-09-22T07:42:27.685Z,4.80
2022-09-22T07:45:13.719Z,5.10
2022-09-22T07:48:03.400Z,5.40
2022-09-22T07:50:34.388Z,4.20
2022-09-22T07:53:05.440Z,4.80
2022-09-22T07:55:38.638Z,4.70
2022-09-22T07:58:11.929Z,5.10
2022-09-22T08:00:46.217Z,4.90
2022-09-22T08:03:17.149Z,4.50
2022-09-22T08:05:49.815Z,4.50
2022-09-22T08:08:20.906Z,6.30
2022-09-22T08:10:51.910Z,5.50
2022-09-22T08:13:23.088Z,6.10
2022-09-22T08:15:56.538Z,6.10
2022-09-22T08:18:28.507Z,4.60
2022-09-22T08:21:00.627Z,4.40
2022-09-22T08:23:32.481Z,4.00
2022-09-22T08:26:10.232Z,3.70
2022-09-22T08:28:41.526Z,4.60
2022-09-22T08:31:20.223Z,3.90
2022-09-22T08:33:52.992Z,3.80
2022-09-22T08:36:25.959Z,4.00
2022-09-22T08:38:58.014Z,3.70
2022-09-22T08:41:41.450Z,4.20
2022-09-22T08:44:23.031Z,3.30
2022-09-22T08:46:56.010Z,4.10
2022-09-22T08:49:49.365Z,3.50
2022-09-22T08:52:28.511Z,3.60
2022-09-22T08:55:02.023Z,4.00
2022-09-22T08:57:56.533Z,3.50
2022-09-22T09:00:31.547Z,3.50
2022-09-22T09:03:17.371Z,4.30
2022-09-22T09:06:09.578Z,4.20
2022-09-22T09:08:59.103Z,4.70
2022-09-22T09:11:49.576Z,3.40
2022-09-22T09:14:38.331Z,3.60
2022-09-22T09:17:15.544Z,3.20
2022-09-22T09:19:50.538Z,2.80
2022-09-22T09:22:25.391Z,3.30
2022-09-22T09:27:52.046Z,2.70
2022-09-22T09:30:24.385Z,2.90
2022-09-22T09:32:57.639Z,2.60
2022-09-22T09:35:44.222Z,2.60
2022-09-22T09:38:18.281Z,3.30
2022-09-22T09:40:54.521Z,2.30
2022-09-22T09:43:28.304Z,2.80
2022-09-22T09:46:13.702Z,3.40
2022-09-22T09:49:00.385Z,2.60
2022-09-22T09:51:39.559Z,2.00
2022-09-22T09:54:17.019Z,2.20
2022-09-22T09:57:07.445Z,2.10
2022-09-22T09:59:57.115Z,2.10
2022-09-22T10:02:31.396Z,2.40
2022-09-22T10:05:06.073Z,2.00
2022-09-22T10:07:47.223Z,1.80
2022-09-22T10:10:36.901Z,2.40
2022-09-22T10:13:35.257Z,2.40
2022-09-22T10:16:20.308Z,1.80
2022-09-22T10:18:52.730Z,2.10
2022-09-22T10:21:24.736Z,2.20
2022-09-22T10:23:57.464Z,3.70
2022-09-22T10:26:30.754Z,2.50
2022-09-22T10:29:25.177Z,2.10
2022-09-22T10:32:17.363Z,1.90
2022-09-22T10:34:57.217Z,1.60
2022-09-22T10:37:31.820Z,1.80
2022-09-22T10:40:04.707Z,1.70
2022-09-22T10:42:40.892Z,1.40
2022-09-22T10:45:37.775Z,2.00
2022-09-22T10:48:16.968Z,1.90
2022-09-22T10:50:59.409Z,1.80
2022-09-22T10:53:47.779Z,1.80
2022-09-22T10:56:30.111Z,1.90
2022-09-22T10:59:23.608Z,1.70
2022-09-22T11:05:06.053Z,1.80
2022-09-22T11:08:16.083Z,1.50
2022-09-22T11:11:14.202Z,2.20
2022-09-22T11:13:53.861Z,1.70
2022-09-22T11:16:53.624Z,1.60
2022-09-22T11:19:41.940Z,1.60
2022-09-22T11:22:35.691Z,1.60
2022-09-22T11:25:21.440Z,1.50
2022-09-22T11:28:06.701Z,1.90
2022-09-22T11:30:45.753Z,1.80
2022-09-22T11:33:33.870Z,2.40
2022-09-22T11:36:16.566Z,1.80
2022-09-22T11:39:01.898Z,2.20
2022-09-22T11:41:42.191Z,2.10
2022-09-22T11:44:32.027Z,2.00
2022-09-22T11:47:33.282Z,2.10
2022-09-22T11:50:23.658Z,1.90
2022-09-22T11:53:11.001Z,2.10
2022-09-22T11:55:50.031Z,1.70
2022-09-22T11:58:23.639Z,1.60
2022-09-22T12:00:59.432Z,1.90
2022-09-22T12:03:40.140Z,2.00
2022-09-22T12:06:16.252Z,2.00
2022-09-22T12:11:30.496Z,2.10
2022-09-22T12:14:01.850Z,1.90
2022-09-22T12:16:43.248Z,2.10
2022-09-22T12:19:26.572Z,2.20
2022-09-22T12:22:07.564Z,3.00
2022-09-22T12:24:39.918Z,3.00
2022-09-22T12:27:23.575Z,2.50
2022-09-22T12:30:03.460Z,2.40
2022-09-22T12:32:39.780Z,2.20
2022-09-22T12:35:20.703Z,2.20
2022-09-22T12:37:56.587Z,2.30
2022-09-22T12:40:31.904Z,2.40
2022-09-22T12:43:04.860Z,2.30
2022-09-22T12:45:39.133Z,2.60
2022-09-22T12:48:17.314Z,2.50
2022-09-22T12:50:48.675Z,2.10
2022-09-22T12:53:29.526Z,2.70
2022-09-22T12:56:00.928Z,2.20
2022-09-22T12:58:44.889Z,2.30
2022-09-22T13:01:36.203Z,2.40
2022-09-22T13:04:16.171Z,2.20
2022-09-22T13:07:01.138Z,8.00
2022-09-22T13:09:33.080Z,3.00
2022-09-22T13:12:36.145Z,3.60
2022-09-22T13:15:27.747Z,3.60
2022-09-22T13:18:00.140Z,2.80
2022-09-22T13:20:43.963Z,2.40
2022-09-22T13:23:17.181Z,3.90
2022-09-22T13:25:49.613Z,3.20
2022-09-22T13:28:22.964Z,3.50
2022-09-22T13:31:11.982Z,2.40
2022-09-22T13:33:44.117Z,3.00
2022-09-22T13:36:18.936Z,2.90
2022-09-22T13:38:54.651Z,2.70
2022-09-22T13:41:28.398Z,3.10
2022-09-22T13:44:07.846Z,3.20
2022-09-22T13:46:43.615Z,3.50
2022-09-22T13:49:26.002Z,3.80
2022-09-22T13:52:03.749Z,3.50
2022-09-22T13:54:38.907Z,3.10
2022-09-22T13:59:53.963Z,2.30
2022-09-22T14:02:31.349Z,2.60
2022-09-22T14:05:18.128Z,3.00
2022-09-22T14:08:11.415Z,2.80
2022-09-22T14:10:52.926Z,2.50
2022-09-22T14:13:58.288Z,3.00
2022-09-22T14:16:35.787Z,2.40
2022-09-22T14:19:19.764Z,2.50
2022-09-22T14:21:56.908Z,2.20
2022-09-22T14:24:32.645Z,2.40
2022-09-22T14:27:09.878Z,3.60
2022-09-22T14:29:49.882Z,3.90
2022-09-22T14:32:30.307Z,3.60
2022-09-22T14:35:10.041Z,3.70
2022-09-22T14:37:46.693Z,3.90
2022-09-22T14:40:22.253Z,3.90
2022-09-22T14:43:04.400Z,4.40
2022-09-22T14:46:04.945Z,3.20
2022-09-22T14:51:16.140Z,2.50
2022-09-22T14:53:51.235Z,2.70
2022-09-22T14:56:27.967Z,3.10
2022-09-22T14:59:23.726Z,4.00
2022-09-22T15:02:19.624Z,3.00
2022-09-22T15:04:53.884Z,2.60
2022-09-22T15:07:29.296Z,2.50
2022-09-22T15:10:02.794Z,2.70
2022-09-22T15:12:48.784Z,2.90
2022-09-22T15:15:23.215Z,2.60
2022-09-22T15:18:16.214Z,2.60
2022-09-22T15:20:50.347Z,2.30
2022-09-22T15:23:26.058Z,1.80
2022-09-22T15:25:57.519Z,1.70
2022-09-22T15:28:28.372Z,1.60
2022-09-22T15:31:00.078Z,1.70
2022-09-22T15:33:31.121Z,1.80
2022-09-22T15:36:11.647Z,1.70
2022-09-22T15:38:43.098Z,1.30
2022-09-22T15:41:16.966Z,1.70
2022-09-22T15:43:50.141Z,1.90
2022-09-22T15:46:34.073Z,2.20
2022-09-22T15:49:08.978Z,2.00
2022-09-22T15:51:43.047Z,2.40
2022-09-22T15:54:18.483Z,2.10
2022-09-22T15:56:51.118Z,5.60
2022-09-22T15:59:29.061Z,4.40
2022-09-22T16:02:02.826Z,3.10
2022-09-22T16:04:35.315Z,2.70
2022-09-22T16:07:08.644Z,2.70
2022-09-22T16:09:40.646Z,3.10
2022-09-22T16:12:13.810Z,2.80
2022-09-22T16:14:44.931Z,3.00
2022-09-22T16:17:16.274Z,3.30
2022-09-22T16:19:47.099Z,3.30
2022-09-22T16:22:18.437Z,3.30
2022-09-22T16:24:49.289Z,3.40
2022-09-22T16:27:20.151Z,3.70
2022-09-22T16:29:51.198Z,3.60
2022-09-22T16:32:22.088Z,3.00
2022-09-22T16:34:53.473Z,3.50
2022-09-22T16:37:24.946Z,4.20
2022-09-22T16:39:55.925Z,3.70
2022-09-22T16:42:26.903Z,4.40
2022-09-22T16:44:57.824Z,14.00
2022-09-22T16:47:30.967Z,11.00
2022-09-22T16:50:01.888Z,8.20
2022-09-22T16:52:32.763Z,12.90
2022-09-22T16:55:05.105Z,12.90
2022-09-22T16:57:35.997Z,5.30
2022-09-22T17:00:09.575Z,4.10
2022-09-22T17:02:40.864Z,3.60
2022-09-22T17:05:12.733Z,3.80
2022-09-22T17:07:47.267Z,3.60
2022-09-22T17:10:19.435Z,3.90
2022-09-22T17:12:50.273Z,3.70
2022-09-22T17:15:21.288Z,4.10
2022-09-22T17:17:52.663Z,3.80
2022-09-22T17:20:24.036Z,4.30
2022-09-22T17:22:55.009Z,4.00
2022-09-22T17:25:27.949Z,4.00
2022-09-22T17:27:59.491Z,4.50
2022-09-22T17:30:30.515Z,4.30
2022-09-22T17:33:01.525Z,4.80
2022-09-22T17:35:32.367Z,4.00
2022-09-22T17:38:03.248Z,4.00
2022-09-22T17:40:34.213Z,3.90
2022-09-22T17:43:05.743Z,3.90
2022-09-22T17:45:36.562Z,4.10
2022-09-22T17:48:24.983Z,3.90
2022-09-22T17:51:13.559Z,3.70
2022-09-22T17:54:01.964Z,3.90
2022-09-22T17:56:32.761Z,5.80
2022-09-22T17:59:03.835Z,5.40
2022-09-22T18:01:34.855Z,4.10
2022-09-22T18:04:05.940Z,8.10
2022-09-22T18:06:36.809Z,5.90
2022-09-22T18:09:07.746Z,5.10
2022-09-22T18:11:42.697Z,3.30
2022-09-22T18:14:13.548Z,4.10
2022-09-22T18:16:44.580Z,3.70
2022-09-22T18:19:15.663Z,3.60
2022-09-22T18:21:46.791Z,8.20
2022-09-22T18:24:19.622Z,5.50
2022-09-22T18:26:50.824Z,4.10
2022-09-22T18:29:22.157Z,4.90
2022-09-22T18:31:54.956Z,4.40
2022-09-22T18:34:31.915Z,6.30
2022-09-22T18:37:04.648Z,10.10
2022-09-22T18:39:36.381Z,12.90
2022-09-22T18:42:11.589Z,14.90
2022-09-22T18:47:17.876Z,9.30
2022-09-22T18:49:51.585Z,4.50
2022-09-22T18:52:26.713Z,4.60
2022-09-22T18:57:29.752Z,5.90
2022-09-22T19:00:02.030Z,5.80
2022-09-22T19:02:33.036Z,4.20
2022-09-22T19:05:08.433Z,4.80
2022-09-22T19:07:43.645Z,6.70
2022-09-22T19:10:19.008Z,8.40
2022-09-22T19:12:50.899Z,6.10
2022-09-22T19:15:25.458Z,4.80
2022-09-22T19:17:56.843Z,4.60
2022-09-22T19:20:28.620Z,4.60
2022-09-22T19:23:00.106Z,5.50
2022-09-22T19:25:32.632Z,6.00
2022-09-22T19:28:15.786Z,5.20
2022-09-22T19:30:48.095Z,4.50
2022-09-22T19:33:19.439Z,4.80
2022-09-22T19:35:54.134Z,5.30
2022-09-22T19:38:25.788Z,5.10
2022-09-22T19:40:58.759Z,6.80
2022-09-22T19:43:31.948Z,8.10
2022-09-22T19:46:03.579Z,5.20
2022-09-22T19:48:35.229Z,4.70
2022-09-22T19:51:07.229Z,4.30
2022-09-22T19:53:39.686Z,4.70
2022-09-22T19:56:11.883Z,5.40
2022-09-22T19:58:45.215Z,5.60
2022-09-22T20:01:43.164Z,5.40
2022-09-22T20:04:17.429Z,5.60
2022-09-22T20:06:48.986Z,5.00
2022-09-22T20:09:19.969Z,5.50
2022-09-22T20:11:53.175Z,5.80
2022-09-22T20:14:25.558Z,5.30
2022-09-22T20:16:59.952Z,5.20
2022-09-22T20:19:33.081Z,5.50
2022-09-22T20:22:25.112Z,5.30
2022-09-22T20:24:58.705Z,5.60
2022-09-22T20:27:31.670Z,5.70
2022-09-22T20:30:03.608Z,5.90
2022-09-22T20:32:35.597Z,6.60
2022-09-22T20:35:07.349Z,5.50
2022-09-22T20:37:39.385Z,6.10
2022-09-22T20:40:14.834Z,6.80
2022-09-22T20:42:46.443Z,6.00
2022-09-22T20:45:20.879Z,8.30
2022-09-22T20:47:52.075Z,11.80
2022-09-22T20:50:23.249Z,7.50
2022-09-22T20:52:55.582Z,5.90
2022-09-22T20:55:26.948Z,5.50
2022-09-22T20:57:59.248Z,5.70
2022-09-22T21:00:30.355Z,6.60
2022-09-22T21:03:02.606Z,5.90
2022-09-22T21:05:36.000Z,5.80
2022-09-22T21:08:25.334Z,5.80
2022-09-22T21:10:56.625Z,6.00
2022-09-22T21:13:27.982Z,6.10
2022-09-22T21:16:03.288Z,5.10
2022-09-22T21:18:36.370Z,6.20
2022-09-22T21:21:09.430Z,6.20
2022-09-22T21:23:41.029Z,5.50
2022-09-22T21:26:15.332Z,6.40
2022-09-22T21:28:47.228Z,5.80
2022-09-22T21:31:18.991Z,5.50
2022-09-22T21:33:50.405Z,5.60
2022-09-22T21:36:23.739Z,5.30
2022-09-22T21:38:58.506Z,5.50
2022-09-22T21:41:31.252Z,5.40
2022-09-22T21:44:02.989Z,6.00
2022-09-22T21:46:37.218Z,5.80
2022-09-22T21:49:08.951Z,4.90
2022-09-22T21:51:42.828Z,5.50
2022-09-22T21:54:17.793Z,4.90
2022-09-22T21:56:50.529Z,5.60
2022-09-22T21:59:21.724Z,5.70
2022-09-22T22:01:52.588Z,5.30
2022-09-22T22:04:23.551Z,5.20
2022-09-22T22:06:54.434Z,5.10
2022-09-22T22:09:26.091Z,4.90
2022-09-22T22:11:59.823Z,5.40
2022-09-22T22:14:33.602Z,6.50
2022-09-22T22:17:06.910Z,4.90
2022-09-22T22:19:37.779Z,5.40
2022-09-22T22:22:08.679Z,5.10
2022-09-22T22:24:42.326Z,5.20
2022-09-22T22:27:14.154Z,5.40
2022-09-22T22:29:46.825Z,5.40
2022-09-22T22:32:17.669Z,4.60
2022-09-22T22:34:48.665Z,4.60
2022-09-22T22:37:21.573Z,4.80
2022-09-22T22:39:54.894Z,5.30
2022-09-22T22:42:25.865Z,5.70
2022-09-22T22:44:56.888Z,5.00
2022-09-22T22:47:27.768Z,4.70
2022-09-22T22:49:58.653Z,5.40
2022-09-22T22:52:29.562Z,6.00
2022-09-22T22:55:00.495Z,4.90
2022-09-22T22:57:31.847Z,5.60
2022-09-22T23:00:02.998Z,5.20
2022-09-22T23:02:33.716Z,5.30
2022-09-22T23:05:05.001Z,4.70
2022-09-22T23:07:35.879Z,4.90
2022-09-22T23:10:07.966Z,5.40
2022-09-22T23:12:40.400Z,5.60
2022-09-22T23:15:12.528Z,5.30
2022-09-22T23:17:43.437Z,5.40
2022-09-22T23:20:15.714Z,5.10
2022-09-22T23:22:46.898Z,5.50
2022-09-22T23:25:17.979Z,5.70
2022-09-22T23:27:50.006Z,5.80
2022-09-22T23:30:21.050Z,6.00
2022-09-22T23:32:52.024Z,5.10
2022-09-22T23:35:22.906Z,6.10
2022-09-22T23:37:53.751Z,4.80
2022-09-22T23:40:24.751Z,5.40
2022-09-22T23:42:55.670Z,5.70
2022-09-22T23:45:26.653Z,5.50
2022-09-22T23:47:57.914Z,6.10
2022-09-22T23:50:28.780Z,5.90
2022-09-22T23:52:59.760Z,6.60
2022-09-22T23:55:30.618Z,5.50
2022-09-22T23:58:01.516Z,6.40
